createdAt,value
2023-04-15T00:00:55.005Z,10.55
2023-04-15T00:01:51.116Z,10.61
2023-04-15T00:02:47.290Z,10.54
2023-04-15T00:03:44.317Z,10.60
2023-04-15T00:04:39.723Z,10.62
2023-04-15T00:05:35.787Z,10.54
2023-04-15T00:06:31.822Z,10.58
2023-04-15T00:07:28.840Z,10.62
2023-04-15T00:08:25.987Z,10.65
2023-04-15T00:09:22.019Z,10.62
2023-04-15T00:10:18.094Z,10.61
2023-04-15T00:11:15.116Z,10.60
2023-04-15T00:12:12.277Z,10.68
2023-04-15T00:13:08.345Z,10.64
2023-04-15T00:14:04.507Z,10.64
2023-04-15T00:15:00.009Z,10.57
2023-04-15T00:15:56.079Z,10.60
2023-04-15T00:16:52.085Z,10.57
2023-04-15T00:17:48.284Z,10.60
2023-04-15T00:18:43.752Z,10.60
2023-04-15T00:19:39.791Z,10.58
2023-04-15T00:20:36.837Z,10.60
2023-04-15T00:21:32.871Z,10.60
2023-04-15T00:22:29.036Z,10.55
2023-04-15T00:23:24.969Z,10.58
2023-04-15T00:24:21.015Z,10.61
2023-04-15T00:25:17.164Z,10.57
2023-04-15T00:26:12.643Z,10.64
2023-04-15T00:27:08.804Z,10.61
2023-04-15T00:28:04.745Z,10.64
2023-04-15T00:29:01.994Z,10.67
2023-04-15T00:29:57.845Z,10.65
2023-04-15T00:30:53.880Z,10.64
2023-04-15T00:31:49.429Z,10.61
2023-04-15T00:32:45.032Z,10.70
2023-04-15T00:33:41.021Z,10.60
2023-04-15T00:34:37.139Z,10.58
2023-04-15T00:35:32.716Z,10.60
2023-04-15T00:36:28.369Z,10.58
2023-04-15T00:37:23.875Z,10.60
2023-04-15T00:38:19.919Z,10.61
2023-04-15T00:39:15.998Z,10.52
2023-04-15T00:40:12.055Z,10.57
2023-04-15T00:41:08.151Z,10.61
2023-04-15T00:42:04.244Z,10.60
2023-04-15T00:42:59.761Z,10.57
2023-04-15T00:43:55.813Z,10.57
2023-04-15T00:44:51.830Z,10.60
2023-04-15T00:45:48.016Z,10.65
2023-04-15T00:46:44.005Z,10.54
2023-04-15T00:47:41.173Z,10.60
2023-04-15T00:48:38.162Z,10.58
2023-04-15T00:49:33.706Z,10.68
2023-04-15T00:50:30.689Z,10.61
2023-04-15T00:51:26.855Z,10.62
2023-04-15T00:52:22.461Z,10.58
2023-04-15T00:53:18.947Z,10.60
2023-04-15T00:54:15.166Z,10.60
2023-04-15T00:55:10.585Z,10.58
2023-04-15T00:56:06.655Z,10.54
2023-04-15T00:57:02.860Z,10.54
2023-04-15T00:57:58.766Z,10.61
2023-04-15T00:58:55.895Z,10.58
2023-04-15T00:59:52.029Z,10.49
2023-04-15T01:00:47.975Z,10.61
2023-04-15T01:01:44.840Z,10.57
2023-04-15T01:02:41.832Z,10.55
2023-04-15T01:03:38.922Z,10.58
2023-04-15T01:04:34.883Z,10.49
2023-04-15T01:05:31.923Z,10.57
2023-04-15T01:06:28.911Z,10.54
2023-04-15T01:07:25.986Z,10.60
2023-04-15T01:08:22.025Z,10.64
2023-04-15T01:09:18.215Z,10.55
2023-04-15T01:10:14.297Z,10.57
2023-04-15T01:11:09.868Z,10.67
2023-04-15T01:12:05.870Z,10.58
2023-04-15T01:13:02.034Z,10.58
2023-04-15T01:13:57.640Z,10.62
2023-04-15T01:14:54.693Z,10.58
2023-04-15T01:15:50.713Z,10.54
2023-04-15T01:16:46.886Z,10.61
2023-04-15T01:17:42.371Z,10.60
2023-04-15T01:18:39.483Z,10.55
2023-04-15T01:19:35.521Z,10.64
2023-04-15T01:20:31.604Z,10.62
2023-04-15T01:21:27.583Z,10.48
2023-04-15T01:22:23.257Z,10.46
2023-04-15T01:23:19.298Z,10.58
2023-04-15T01:24:15.347Z,10.52
2023-04-15T01:25:10.922Z,10.48
2023-04-15T01:26:06.895Z,10.48
2023-04-15T01:27:02.475Z,10.62
2023-04-15T01:27:58.835Z,10.57
2023-04-15T01:28:54.372Z,10.52
2023-04-15T01:29:49.970Z,10.55
2023-04-15T01:30:46.087Z,10.57
2023-04-15T01:31:42.151Z,10.61
2023-04-15T01:32:38.282Z,10.52
2023-04-15T01:33:35.360Z,10.43
2023-04-15T01:34:34.990Z,10.54
2023-04-15T01:35:28.599Z,10.58
2023-04-15T01:36:24.512Z,10.58
2023-04-15T01:37:20.657Z,10.49
2023-04-15T01:38:16.273Z,10.60
2023-04-15T01:39:12.857Z,10.54
2023-04-15T01:40:21.341Z,10.62
2023-04-15T01:41:18.436Z,10.58
2023-04-15T01:42:13.978Z,10.55
2023-04-15T01:43:12.069Z,10.61
2023-04-15T01:44:08.101Z,10.60
2023-04-15T01:45:04.196Z,10.64
2023-04-15T01:46:00.874Z,10.57
2023-04-15T01:46:56.488Z,10.57
2023-04-15T01:48:03.819Z,10.52
2023-04-15T01:49:00.928Z,10.58
2023-04-15T01:49:56.820Z,10.55
2023-04-15T01:50:52.877Z,10.62
2023-04-15T01:51:48.932Z,10.52
2023-04-15T01:52:44.981Z,10.58
2023-04-15T01:53:41.094Z,10.60
2023-04-15T01:54:38.126Z,10.46
2023-04-15T01:55:35.211Z,10.58
2023-04-15T01:56:31.258Z,10.60
2023-04-15T01:57:28.243Z,10.55
2023-04-15T01:58:24.387Z,10.60
2023-04-15T01:59:20.467Z,10.55
2023-04-15T02:00:16.594Z,10.55
2023-04-15T02:01:12.122Z,10.58
2023-04-15T02:02:08.246Z,10.58
2023-04-15T02:03:04.305Z,10.58
2023-04-15T02:04:01.389Z,10.61
2023-04-15T02:04:57.328Z,10.55
2023-04-15T02:05:53.403Z,10.60
2023-04-15T02:06:49.614Z,10.65
2023-04-15T02:07:45.618Z,10.60
2023-04-15T02:08:42.709Z,10.57
2023-04-15T02:09:39.684Z,10.60
2023-04-15T02:10:35.783Z,10.58
2023-04-15T02:11:31.859Z,10.45
2023-04-15T02:12:27.873Z,10.60
2023-04-15T02:13:23.401Z,10.48
2023-04-15T02:14:19.457Z,10.61
2023-04-15T02:15:15.626Z,10.49
2023-04-15T02:16:11.257Z,10.65
2023-04-15T02:17:07.210Z,10.58
2023-04-15T02:18:03.384Z,10.55
2023-04-15T02:19:00.629Z,10.64
2023-04-15T02:19:56.368Z,10.58
2023-04-15T02:20:52.457Z,10.60
2023-04-15T02:21:48.461Z,10.58
2023-04-15T02:22:44.066Z,10.48
2023-04-15T02:23:41.216Z,10.57
2023-04-15T02:24:38.167Z,10.52
2023-04-15T02:25:34.248Z,10.58
2023-04-15T02:26:30.271Z,10.48
2023-04-15T02:27:15.022Z,10.57
2023-04-15T02:28:11.073Z,10.57
2023-04-15T02:29:07.120Z,10.58
2023-04-15T02:30:03.166Z,10.52
2023-04-15T02:30:58.827Z,10.55
2023-04-15T02:31:54.869Z,10.55
2023-04-15T02:32:50.921Z,10.55
2023-04-15T02:33:47.912Z,10.58
2023-04-15T02:34:44.050Z,10.55
2023-04-15T02:35:41.071Z,10.61
2023-04-15T02:36:38.166Z,10.52
2023-04-15T02:37:34.217Z,10.61
2023-04-15T02:38:30.340Z,10.52
2023-04-15T02:39:25.925Z,10.54
2023-04-15T02:40:21.912Z,10.58
2023-04-15T02:41:18.007Z,10.58
2023-04-15T02:42:15.245Z,10.64
2023-04-15T02:43:11.073Z,10.57
2023-04-15T02:44:07.189Z,10.55
2023-04-15T02:45:03.324Z,10.58
2023-04-15T02:46:00.367Z,10.61
2023-04-15T02:46:56.390Z,10.52
2023-04-15T02:47:53.598Z,10.61
2023-04-15T02:48:50.562Z,10.52
2023-04-15T02:49:46.630Z,10.54
2023-04-15T02:50:44.690Z,10.46
2023-04-15T02:51:41.742Z,10.58
2023-04-15T02:52:37.708Z,10.58
2023-04-15T02:53:33.823Z,10.46
2023-04-15T02:54:29.391Z,10.48
2023-04-15T02:55:25.008Z,10.58
2023-04-15T02:56:21.060Z,10.54
2023-04-15T02:57:17.122Z,10.58
2023-04-15T02:58:13.141Z,10.54
2023-04-15T02:59:09.247Z,10.60
2023-04-15T03:00:04.835Z,10.60
2023-04-15T03:01:00.978Z,10.57
2023-04-15T03:01:57.020Z,10.54
2023-04-15T03:02:43.361Z,10.61
2023-04-15T03:03:38.801Z,10.58
2023-04-15T03:04:34.734Z,10.58
2023-04-15T03:05:31.232Z,10.48
2023-04-15T03:06:27.291Z,10.64
2023-04-15T03:07:22.901Z,10.62
2023-04-15T03:08:18.936Z,10.62
2023-04-15T03:09:15.151Z,10.58
2023-04-15T03:10:11.185Z,10.58
2023-04-15T03:11:08.161Z,10.58
2023-04-15T03:12:04.168Z,10.62
2023-04-15T03:13:01.324Z,10.52
2023-04-15T03:13:57.796Z,10.58
2023-04-15T03:14:53.457Z,10.58
2023-04-15T03:15:50.545Z,10.64
2023-04-15T03:16:57.788Z,10.61
2023-04-15T03:17:53.908Z,10.60
2023-04-15T03:18:49.984Z,10.54
2023-04-15T03:19:57.649Z,10.52
2023-04-15T03:20:53.258Z,10.49
2023-04-15T03:21:49.244Z,10.52
2023-04-15T03:22:45.309Z,10.58
2023-04-15T03:23:41.400Z,10.55
2023-04-15T03:24:37.539Z,10.54
2023-04-15T03:25:33.545Z,10.57
2023-04-15T03:26:29.598Z,10.58
2023-04-15T03:27:25.560Z,10.58
2023-04-15T03:28:21.207Z,10.54
2023-04-15T03:29:05.848Z,10.57
2023-04-15T03:30:01.970Z,10.61
2023-04-15T03:30:59.107Z,10.48
2023-04-15T03:31:55.136Z,10.52
2023-04-15T03:32:50.719Z,10.55
2023-04-15T03:33:46.751Z,10.61
2023-04-15T03:34:42.763Z,10.65
2023-04-15T03:35:38.925Z,10.60
2023-04-15T03:36:34.953Z,10.62
2023-04-15T03:37:31.014Z,10.64
2023-04-15T03:38:28.006Z,10.65
2023-04-15T03:39:25.161Z,10.65
2023-04-15T03:40:21.252Z,10.64
2023-04-15T03:41:17.237Z,10.67
2023-04-15T03:42:14.352Z,10.57
2023-04-15T03:43:22.703Z,10.54
2023-04-15T03:44:19.280Z,10.61
2023-04-15T03:45:15.380Z,10.58
2023-04-15T03:46:11.486Z,10.62
2023-04-15T03:47:07.031Z,10.67
2023-04-15T03:48:16.616Z,10.64
2023-04-15T03:49:00.522Z,10.72
2023-04-15T03:49:55.735Z,10.70
2023-04-15T03:50:51.783Z,10.65
2023-04-15T03:51:47.888Z,10.61
2023-04-15T03:52:54.680Z,10.61
2023-04-15T03:53:50.779Z,10.62
2023-04-15T03:54:47.855Z,10.60
2023-04-15T03:55:43.987Z,10.68
2023-04-15T03:56:40.030Z,10.60
2023-04-15T03:57:36.113Z,10.67
2023-04-15T03:58:31.608Z,10.70
2023-04-15T03:59:27.766Z,10.75
2023-04-15T04:00:24.769Z,10.68
2023-04-15T04:01:21.814Z,10.70
2023-04-15T04:02:18.971Z,10.65
2023-04-15T04:03:15.024Z,10.78
2023-04-15T04:04:11.061Z,10.72
2023-04-15T04:05:08.027Z,10.73
2023-04-15T04:06:04.095Z,10.70
2023-04-15T04:07:00.108Z,10.68
2023-04-15T04:07:56.213Z,10.65
2023-04-15T04:08:52.220Z,10.64
2023-04-15T04:09:47.778Z,10.64
2023-04-15T04:10:43.835Z,10.68
2023-04-15T04:11:39.998Z,10.76
2023-04-15T04:12:36.049Z,10.68
2023-04-15T04:13:33.064Z,10.72
2023-04-15T04:14:28.661Z,10.65
2023-04-15T04:15:24.727Z,10.70
2023-04-15T04:16:20.989Z,10.68
2023-04-15T04:17:17.007Z,10.72
2023-04-15T04:18:13.048Z,10.76
2023-04-15T04:19:10.088Z,10.72
2023-04-15T04:20:06.179Z,10.75
2023-04-15T04:21:02.744Z,10.80
2023-04-15T04:21:58.744Z,10.72
2023-04-15T04:22:54.360Z,10.75
2023-04-15T04:23:49.888Z,10.79
2023-04-15T04:24:45.526Z,10.79
2023-04-15T04:25:41.596Z,10.72
2023-04-15T04:26:37.742Z,10.76
2023-04-15T04:27:33.817Z,10.82
2023-04-15T04:28:29.820Z,10.73
2023-04-15T04:29:25.929Z,10.76
2023-04-15T04:30:21.485Z,10.75
2023-04-15T04:31:17.524Z,10.72
2023-04-15T04:32:13.219Z,10.75
2023-04-15T04:33:08.776Z,10.76
2023-04-15T04:34:04.771Z,10.76
2023-04-15T04:35:00.816Z,10.80
2023-04-15T04:35:56.875Z,10.80
2023-04-15T04:36:53.975Z,10.70
2023-04-15T04:37:51.032Z,10.76
2023-04-15T04:38:47.078Z,10.82
2023-04-15T04:39:42.588Z,10.75
2023-04-15T04:40:38.640Z,10.72
2023-04-15T04:41:34.739Z,10.75
2023-04-15T04:42:31.271Z,10.80
2023-04-15T04:43:27.370Z,10.76
2023-04-15T04:44:23.421Z,10.75
2023-04-15T04:45:19.428Z,10.79
2023-04-15T04:46:15.576Z,10.75
2023-04-15T04:47:11.083Z,10.80
2023-04-15T04:48:08.106Z,10.79
2023-04-15T04:49:05.255Z,10.83
2023-04-15T04:50:01.443Z,10.80
2023-04-15T04:50:57.524Z,10.76
2023-04-15T04:51:54.656Z,10.91
2023-04-15T04:52:50.781Z,10.83
2023-04-15T04:53:46.702Z,10.78
2023-04-15T04:54:42.258Z,10.80
2023-04-15T04:55:39.323Z,10.75
2023-04-15T04:56:35.376Z,10.83
2023-04-15T04:57:32.387Z,10.87
2023-04-15T04:58:28.555Z,10.85
2023-04-15T04:59:24.648Z,10.82
2023-04-15T05:00:20.718Z,10.87
2023-04-15T05:01:16.735Z,10.91
2023-04-15T05:02:12.858Z,10.83
2023-04-15T05:03:09.071Z,10.91
2023-04-15T05:04:05.471Z,10.90
2023-04-15T05:05:00.639Z,10.85
2023-04-15T05:05:57.671Z,10.85
2023-04-15T05:06:53.749Z,10.87
2023-04-15T05:07:49.803Z,10.91
2023-04-15T05:08:45.885Z,10.85
2023-04-15T05:09:42.899Z,10.87
2023-04-15T05:10:39.962Z,10.90
2023-04-15T05:11:37.059Z,10.86
2023-04-15T05:12:33.145Z,10.90
2023-04-15T05:13:29.173Z,10.91
2023-04-15T05:14:26.268Z,10.93
2023-04-15T05:15:22.264Z,10.93
2023-04-15T05:16:18.446Z,10.86
2023-04-15T05:17:14.388Z,10.85
2023-04-15T05:18:10.432Z,10.94
2023-04-15T05:19:06.440Z,10.91
2023-04-15T05:20:02.515Z,10.93
2023-04-15T05:20:59.113Z,10.87
2023-04-15T05:21:54.715Z,10.85
2023-04-15T05:22:50.744Z,10.85
2023-04-15T05:23:46.808Z,10.94
2023-04-15T05:24:42.379Z,10.87
2023-04-15T05:25:39.427Z,10.87
2023-04-15T05:26:34.957Z,10.91
2023-04-15T05:27:32.009Z,10.93
2023-04-15T05:28:28.106Z,10.95
2023-04-15T05:29:24.091Z,10.91
2023-04-15T05:30:19.667Z,10.91
2023-04-15T05:31:15.796Z,10.87
2023-04-15T05:32:11.840Z,10.94
2023-04-15T05:33:07.849Z,10.91
2023-04-15T05:34:04.914Z,10.97
2023-04-15T05:34:49.554Z,10.95
2023-04-15T05:35:47.597Z,11.01
2023-04-15T05:36:43.187Z,10.97
2023-04-15T05:37:38.825Z,10.90
2023-04-15T05:38:34.814Z,11.01
2023-04-15T05:39:31.868Z,11.05
2023-04-15T05:40:27.954Z,11.05
2023-04-15T05:41:23.990Z,10.94
2023-04-15T05:42:19.576Z,11.08
2023-04-15T05:43:15.722Z,11.04
2023-04-15T05:44:13.734Z,10.98
2023-04-15T05:44:59.897Z,11.03
2023-04-15T05:45:57.020Z,11.03
2023-04-15T05:46:53.968Z,11.05
2023-04-15T05:47:50.088Z,11.05
2023-04-15T05:48:46.115Z,11.08
2023-04-15T05:49:41.665Z,11.08
2023-04-15T05:50:37.763Z,11.05
2023-04-15T05:51:33.316Z,11.09
2023-04-15T05:52:28.883Z,11.11
2023-04-15T05:53:24.981Z,11.09
2023-04-15T05:54:21.984Z,11.08
2023-04-15T05:55:18.057Z,11.11
2023-04-15T05:56:15.090Z,11.11
2023-04-15T05:57:11.115Z,11.11
2023-04-15T05:58:07.209Z,11.09
2023-04-15T05:59:03.368Z,11.13
2023-04-15T05:59:59.396Z,11.15
2023-04-15T06:00:55.463Z,11.20
2023-04-15T06:01:51.632Z,11.19
2023-04-15T06:02:47.743Z,11.16
2023-04-15T06:03:43.308Z,11.20
2023-04-15T06:04:39.370Z,11.23
2023-04-15T06:05:36.332Z,11.20
2023-04-15T06:06:33.373Z,11.33
2023-04-15T06:07:29.419Z,11.20
2023-04-15T06:08:37.738Z,11.33
2023-04-15T06:09:34.802Z,11.28
2023-04-15T06:10:31.920Z,11.34
2023-04-15T06:11:27.937Z,11.33
2023-04-15T06:12:24.031Z,11.33
2023-04-15T06:13:19.627Z,11.40
2023-04-15T06:14:15.177Z,11.34
2023-04-15T06:15:12.284Z,11.36
2023-04-15T06:16:08.377Z,11.37
2023-04-15T06:17:04.411Z,11.40
2023-04-15T06:18:00.498Z,11.40
2023-04-15T06:18:58.676Z,11.38
2023-04-15T06:19:54.614Z,11.43
2023-04-15T06:20:50.688Z,11.40
2023-04-15T06:21:46.245Z,11.43
2023-04-15T06:22:42.285Z,11.38
2023-04-15T06:23:38.333Z,11.37
2023-04-15T06:24:33.889Z,11.37
2023-04-15T06:25:32.423Z,11.55
2023-04-15T06:26:28.570Z,11.51
2023-04-15T06:27:24.552Z,11.51
2023-04-15T06:28:20.582Z,11.52
2023-04-15T06:29:16.140Z,11.51
2023-04-15T06:30:12.192Z,11.54
2023-04-15T06:31:09.315Z,11.51
2023-04-15T06:32:06.322Z,11.49
2023-04-15T06:33:03.457Z,11.56
2023-04-15T06:33:59.414Z,11.58
2023-04-15T06:34:55.466Z,11.59
2023-04-15T06:35:52.500Z,11.59
2023-04-15T06:36:49.651Z,11.54
2023-04-15T06:37:45.225Z,11.56
2023-04-15T06:38:42.257Z,11.59
2023-04-15T06:39:38.276Z,11.58
2023-04-15T06:40:35.327Z,11.55
2023-04-15T06:41:31.387Z,11.54
2023-04-15T06:42:28.405Z,11.59
2023-04-15T06:43:23.961Z,11.61
2023-04-15T06:44:20.024Z,11.56
2023-04-15T06:45:16.075Z,11.62
2023-04-15T06:46:13.191Z,11.64
2023-04-15T06:47:08.725Z,11.62
2023-04-15T06:48:05.837Z,11.69
2023-04-15T06:48:50.941Z,11.71
2023-04-15T06:49:48.030Z,11.70
2023-04-15T06:50:44.041Z,11.73
2023-04-15T06:51:40.150Z,11.76
2023-04-15T06:52:36.279Z,11.77
2023-04-15T06:53:32.274Z,11.74
2023-04-15T06:54:28.345Z,11.82
2023-04-15T06:55:24.389Z,11.85
2023-04-15T06:56:20.484Z,11.84
2023-04-15T06:57:16.571Z,11.89
2023-04-15T06:58:12.617Z,11.84
2023-04-15T06:59:08.723Z,11.99
2023-04-15T07:00:05.763Z,11.99
2023-04-15T07:01:01.879Z,11.97
2023-04-15T07:01:57.355Z,12.00
2023-04-15T07:02:52.966Z,12.03
2023-04-15T07:03:48.627Z,12.10
2023-04-15T07:04:44.595Z,12.04
2023-04-15T07:05:41.607Z,12.03
2023-04-15T07:06:37.746Z,12.10
2023-04-15T07:07:34.714Z,12.04
2023-04-15T07:08:30.789Z,12.11
2023-04-15T07:09:27.924Z,12.05
2023-04-15T07:10:25.707Z,12.17
2023-04-15T07:11:20.569Z,12.14
2023-04-15T07:12:16.744Z,12.18
2023-04-15T07:13:12.759Z,12.15
2023-04-15T07:14:08.315Z,12.18
2023-04-15T07:15:03.891Z,12.18
2023-04-15T07:15:59.938Z,12.29
2023-04-15T07:16:45.204Z,12.28
2023-04-15T07:17:42.199Z,12.29
2023-04-15T07:18:38.285Z,12.33
2023-04-15T07:19:34.335Z,12.25
2023-04-15T07:20:30.443Z,12.25
2023-04-15T07:21:26.467Z,12.23
2023-04-15T07:22:22.536Z,12.28
2023-04-15T07:23:18.596Z,12.28
2023-04-15T07:24:14.697Z,12.29
2023-04-15T07:25:11.754Z,12.29
2023-04-15T07:26:08.837Z,12.28
2023-04-15T07:27:05.874Z,12.38
2023-04-15T07:28:01.906Z,12.30
2023-04-15T07:28:58.987Z,12.38
2023-04-15T07:29:54.551Z,12.26
2023-04-15T07:30:50.581Z,12.25
2023-04-15T07:31:48.622Z,12.23
2023-04-15T07:32:44.296Z,12.43
2023-04-15T07:33:41.334Z,12.30
2023-04-15T07:34:37.408Z,12.35
2023-04-15T07:35:33.468Z,12.41
2023-04-15T07:36:29.549Z,12.33
2023-04-15T07:37:25.606Z,12.30
2023-04-15T07:38:21.699Z,12.23
2023-04-15T07:39:17.932Z,12.29
2023-04-15T07:40:13.994Z,12.30
2023-04-15T07:41:10.042Z,12.40
2023-04-15T07:42:05.643Z,12.29
2023-04-15T07:43:01.692Z,12.30
2023-04-15T07:43:57.732Z,12.29
2023-04-15T07:44:54.342Z,12.26
2023-04-15T07:45:50.368Z,12.25
2023-04-15T07:46:46.414Z,12.32
2023-04-15T07:47:42.557Z,12.38
2023-04-15T07:48:38.013Z,12.28
2023-04-15T07:49:35.229Z,12.33
2023-04-15T07:50:31.219Z,12.38
2023-04-15T07:51:27.261Z,12.40
2023-04-15T07:52:24.337Z,12.30
2023-04-15T07:53:20.519Z,12.14
2023-04-15T07:54:16.117Z,12.15
2023-04-15T07:55:12.223Z,12.23
2023-04-15T07:56:08.284Z,12.28
2023-04-15T07:57:04.336Z,12.30
2023-04-15T07:58:00.373Z,12.28
2023-04-15T07:58:56.406Z,12.38
2023-04-15T07:59:53.476Z,12.38
2023-04-15T08:00:49.565Z,12.23
2023-04-15T08:01:45.168Z,12.33
2023-04-15T08:02:41.392Z,12.28
2023-04-15T08:03:38.372Z,12.26
2023-04-15T08:04:34.525Z,12.30
2023-04-15T08:05:19.529Z,12.30
2023-04-15T08:06:16.523Z,12.32
2023-04-15T08:07:12.546Z,12.36
2023-04-15T08:08:08.588Z,12.46
2023-04-15T08:09:15.922Z,12.32
2023-04-15T08:10:23.293Z,12.28
2023-04-15T08:11:20.330Z,12.17
2023-04-15T08:12:17.371Z,12.17
2023-04-15T08:13:24.368Z,12.13
2023-04-15T08:14:21.370Z,12.28
2023-04-15T08:15:17.414Z,12.36
2023-04-15T08:16:13.635Z,12.28
2023-04-15T08:17:09.608Z,12.26
2023-04-15T08:18:05.727Z,12.29
2023-04-15T08:19:01.973Z,12.22
2023-04-15T08:19:58.809Z,12.29
2023-04-15T08:20:54.885Z,12.30
2023-04-15T08:21:50.407Z,12.40
2023-04-15T08:22:46.608Z,12.38
2023-04-15T08:23:42.660Z,12.30
2023-04-15T08:24:39.312Z,12.30
2023-04-15T08:25:34.776Z,12.40
2023-04-15T08:26:31.813Z,12.32
2023-04-15T08:27:28.883Z,12.43
2023-04-15T08:28:25.182Z,12.32
2023-04-15T08:29:21.223Z,12.40
2023-04-15T08:30:17.272Z,12.32
2023-04-15T08:31:24.678Z,12.30
2023-04-15T08:32:21.750Z,12.30
2023-04-15T08:33:17.707Z,12.26
2023-04-15T08:34:13.780Z,12.30
2023-04-15T08:35:09.818Z,12.26
2023-04-15T08:36:05.963Z,12.28
2023-04-15T08:37:02.008Z,12.18
2023-04-15T08:37:58.121Z,12.18
2023-04-15T08:38:54.159Z,12.29
2023-04-15T08:39:51.184Z,12.26
2023-04-15T08:40:47.266Z,12.25
2023-04-15T08:41:43.365Z,12.22
2023-04-15T08:42:39.369Z,12.15
2023-04-15T08:43:35.430Z,12.15
2023-04-15T08:44:31.587Z,12.25
2023-04-15T08:45:38.987Z,12.26
2023-04-15T08:46:35.086Z,12.15
2023-04-15T08:47:42.334Z,12.13
2023-04-15T08:48:49.701Z,12.14
2023-04-15T08:49:46.715Z,12.18
2023-04-15T08:50:42.746Z,12.11
2023-04-15T08:51:38.777Z,12.11
2023-04-15T08:52:34.955Z,12.11
2023-04-15T08:53:30.995Z,12.10
2023-04-15T08:54:28.081Z,12.18
2023-04-15T08:55:24.221Z,12.13
2023-04-15T08:56:20.229Z,12.18
2023-04-15T08:57:16.758Z,12.13
2023-04-15T08:58:12.900Z,12.17
2023-04-15T08:59:08.866Z,12.15
2023-04-15T09:00:05.704Z,12.14
2023-04-15T09:01:01.037Z,12.15
2023-04-15T09:01:57.063Z,12.28
2023-04-15T09:02:53.199Z,12.29
2023-04-15T09:03:49.354Z,12.26
2023-04-15T09:04:45.184Z,12.14
2023-04-15T09:05:41.328Z,12.18
2023-04-15T09:06:38.406Z,12.21
2023-04-15T09:07:34.530Z,12.25
2023-04-15T09:08:31.608Z,12.32
2023-04-15T09:09:27.600Z,12.30
2023-04-15T09:10:23.707Z,12.28
2023-04-15T09:11:31.034Z,12.33
2023-04-15T09:12:27.045Z,12.29
2023-04-15T09:13:23.101Z,12.26
2023-04-15T09:14:19.325Z,12.29
2023-04-15T09:15:15.356Z,12.15
2023-04-15T09:16:11.426Z,12.22
2023-04-15T09:17:07.523Z,12.25
2023-04-15T09:18:03.551Z,12.17
2023-04-15T09:18:59.788Z,12.14
2023-04-15T09:19:55.911Z,12.28
2023-04-15T09:21:03.238Z,12.29
2023-04-15T09:22:00.394Z,12.28
2023-04-15T09:22:56.343Z,12.28
2023-04-15T09:23:52.496Z,12.23
2023-04-15T09:24:48.497Z,12.28
2023-04-15T09:25:44.525Z,12.30
2023-04-15T09:26:41.575Z,12.28
2023-04-15T09:27:37.629Z,12.29
2023-04-15T09:28:33.767Z,12.29
2023-04-15T09:29:29.974Z,12.44
2023-04-15T09:30:26.175Z,12.32
2023-04-15T09:31:22.409Z,12.30
2023-04-15T09:32:18.243Z,12.26
2023-04-15T09:33:14.167Z,12.26
2023-04-15T09:34:10.227Z,12.25
2023-04-15T09:35:06.381Z,12.38
2023-04-15T09:36:01.952Z,12.40
2023-04-15T09:36:58.977Z,12.30
2023-04-15T09:37:56.009Z,12.38
2023-04-15T09:38:41.201Z,12.33
2023-04-15T09:39:37.251Z,12.38
2023-04-15T09:40:33.319Z,12.33
2023-04-15T09:41:29.381Z,12.28
2023-04-15T09:42:26.478Z,12.29
2023-04-15T09:43:22.564Z,12.26
2023-04-15T09:44:19.615Z,12.28
2023-04-15T09:45:15.588Z,12.17
2023-04-15T09:46:11.789Z,12.22
2023-04-15T09:47:07.771Z,12.29
2023-04-15T09:48:04.798Z,12.29
2023-04-15T09:49:00.861Z,12.28
2023-04-15T09:49:57.926Z,12.26
2023-04-15T09:50:54.074Z,12.29
2023-04-15T09:52:01.665Z,12.30
2023-04-15T09:52:46.057Z,12.30
2023-04-15T09:53:43.110Z,12.22
2023-04-15T09:54:39.207Z,12.30
2023-04-15T09:55:35.280Z,12.26
2023-04-15T09:56:31.410Z,12.21
2023-04-15T09:57:27.524Z,12.15
2023-04-15T09:58:23.565Z,12.22
2023-04-15T09:59:21.844Z,12.28
2023-04-15T10:00:16.599Z,12.28
2023-04-15T10:01:12.681Z,12.41
2023-04-15T10:02:08.849Z,12.30
2023-04-15T10:03:05.069Z,12.29
2023-04-15T10:04:01.163Z,12.30
2023-04-15T10:04:56.944Z,12.41
2023-04-15T10:05:52.596Z,12.29
2023-04-15T10:06:49.577Z,12.28
2023-04-15T10:07:45.697Z,12.25
2023-04-15T10:08:41.762Z,12.40
2023-04-15T10:09:37.749Z,12.41
2023-04-15T10:10:33.951Z,12.38
2023-04-15T10:11:31.608Z,12.36
2023-04-15T10:12:25.994Z,12.29
2023-04-15T10:13:22.160Z,12.43
2023-04-15T10:14:18.183Z,12.30
2023-04-15T10:15:14.316Z,12.25
2023-04-15T10:16:10.398Z,12.25
2023-04-15T10:17:06.464Z,12.28
2023-04-15T10:18:03.580Z,12.28
2023-04-15T10:18:59.658Z,12.29
2023-04-15T10:19:55.686Z,12.32
2023-04-15T10:20:51.749Z,12.33
2023-04-15T10:21:48.838Z,12.35
2023-04-15T10:22:44.501Z,12.40
2023-04-15T10:23:51.819Z,12.32
2023-04-15T10:24:47.977Z,12.38
2023-04-15T10:25:44.099Z,12.40
2023-04-15T10:26:41.148Z,12.28
2023-04-15T10:27:37.243Z,12.38
2023-04-15T10:28:34.268Z,12.41
2023-04-15T10:29:30.353Z,12.28
2023-04-15T10:30:26.415Z,12.38
2023-04-15T10:31:22.509Z,12.40
2023-04-15T10:32:07.667Z,12.36
2023-04-15T10:33:03.310Z,12.36
2023-04-15T10:33:59.268Z,12.40
2023-04-15T10:34:55.310Z,12.36
2023-04-15T10:35:51.420Z,12.43
2023-04-15T10:36:47.507Z,12.29
2023-04-15T10:37:44.594Z,12.41
2023-04-15T10:38:40.682Z,12.36
2023-04-15T10:39:36.679Z,12.41
2023-04-15T10:40:32.775Z,12.35
2023-04-15T10:41:29.882Z,12.41
2023-04-15T10:42:25.862Z,12.47
2023-04-15T10:43:22.502Z,12.38
2023-04-15T10:44:19.609Z,12.41
2023-04-15T10:45:15.632Z,12.40
2023-04-15T10:46:11.724Z,12.47
2023-04-15T10:47:07.697Z,12.41
2023-04-15T10:48:04.023Z,12.40
2023-04-15T10:48:59.834Z,12.47
2023-04-15T10:49:56.884Z,12.46
2023-04-15T10:50:52.997Z,12.41
2023-04-15T10:51:49.103Z,12.48
2023-04-15T10:52:45.049Z,12.50
2023-04-15T10:53:42.118Z,12.55
2023-04-15T10:54:38.320Z,12.55
2023-04-15T10:55:34.365Z,12.53
2023-04-15T10:56:31.398Z,12.55
2023-04-15T10:57:27.587Z,12.53
2023-04-15T10:58:24.586Z,12.58
2023-04-15T10:59:22.351Z,12.58
2023-04-15T11:00:16.171Z,12.54
2023-04-15T11:01:12.346Z,12.58
2023-04-15T11:02:08.546Z,12.58
2023-04-15T11:03:05.544Z,12.61
2023-04-15T11:04:01.065Z,12.62
2023-04-15T11:04:57.083Z,12.65
2023-04-15T11:05:54.146Z,12.62
2023-04-15T11:06:50.309Z,12.59
2023-04-15T11:07:46.368Z,12.55
2023-04-15T11:08:42.393Z,12.51
2023-04-15T11:09:38.385Z,12.54
2023-04-15T11:10:34.662Z,12.55
2023-04-15T11:11:30.610Z,12.54
2023-04-15T11:12:26.666Z,12.47
2023-04-15T11:13:22.794Z,12.53
2023-04-15T11:14:18.799Z,12.61
2023-04-15T11:15:14.866Z,12.51
2023-04-15T11:16:22.286Z,12.53
2023-04-15T11:17:19.254Z,12.59
2023-04-15T11:18:15.336Z,12.59
2023-04-15T11:19:11.420Z,12.58
2023-04-15T11:20:09.314Z,12.59
2023-04-15T11:21:05.443Z,12.58
2023-04-15T11:22:01.454Z,12.55
2023-04-15T11:23:14.462Z,12.59
2023-04-15T11:23:53.010Z,12.62
2023-04-15T11:24:49.145Z,12.61
2023-04-15T11:25:45.196Z,12.58
2023-04-15T11:26:40.760Z,12.63
2023-04-15T11:27:37.473Z,12.61
2023-04-15T11:28:33.449Z,12.58
2023-04-15T11:29:30.461Z,12.54
2023-04-15T11:30:27.586Z,12.53
2023-04-15T11:31:24.653Z,12.53
2023-04-15T11:32:20.741Z,12.55
2023-04-15T11:33:16.820Z,12.54
2023-04-15T11:34:12.815Z,12.61
2023-04-15T11:35:09.967Z,12.58
2023-04-15T11:36:05.920Z,12.61
2023-04-15T11:37:03.125Z,12.62
2023-04-15T11:38:00.133Z,12.62
2023-04-15T11:38:56.202Z,12.62
2023-04-15T11:39:54.687Z,12.58
2023-04-15T11:40:51.764Z,12.63
2023-04-15T11:41:47.867Z,12.63
2023-04-15T11:42:49.654Z,12.61
2023-04-15T11:43:40.591Z,12.63
2023-04-15T11:44:36.667Z,12.58
2023-04-15T11:45:32.787Z,12.65
2023-04-15T11:46:29.832Z,12.69
2023-04-15T11:47:26.055Z,12.59
2023-04-15T11:48:22.036Z,12.65
2023-04-15T11:49:18.088Z,12.59
2023-04-15T11:50:14.170Z,12.55
2023-04-15T11:51:21.579Z,12.73
2023-04-15T11:52:17.525Z,12.63
2023-04-15T11:53:14.579Z,12.65
2023-04-15T11:54:11.629Z,12.65
2023-04-15T11:55:08.778Z,12.63
2023-04-15T11:55:54.337Z,12.58
2023-04-15T11:56:51.412Z,12.58
2023-04-15T11:57:47.528Z,12.59
2023-04-15T11:58:54.875Z,12.63
2023-04-15T11:59:50.876Z,12.62
2023-04-15T12:00:48.994Z,12.61
2023-04-15T12:01:44.477Z,12.61
2023-04-15T12:02:40.781Z,12.62
2023-04-15T12:03:36.181Z,12.59
2023-04-15T12:04:32.575Z,12.59
2023-04-15T12:05:29.228Z,12.61
2023-04-15T12:06:25.362Z,12.59